Time;durP1;ratioP1;P1;durP2;ratioP2;P2;SDS_P1;SDS_P2;PMS_P1;PMS_P2;Temp;Humidity;BMP_temperature;BMP_pressure;BME280_temperature;BME280_humidity;BME280_pressure;Samples;Min_cycle;Max_cycle;Signal;HPM_P1;HPM_P2
2024/01/08 00:02:14;;;;;;;5.80;2.30;;;-2.40;99.90;;;;;;5005250;28;20476;-70
2024/01/08 00:04:40;;;;;;;4.50;2.30;;;-2.40;99.90;;;;;;4998742;28;20270;-68
2024/01/08 00:07:05;;;;;;;6.30;2.70;;;-2.40;99.90;;;;;;4999475;28;20251;-68
2024/01/08 00:09:31;;;;;;;5.43;3.00;;;-2.50;99.90;;;;;;4998223;28;20809;-68
2024/01/08 00:11:56;;;;;;;4.43;2.53;;;-2.50;99.90;;;;;;5000414;28;20193;-68
2024/01/08 00:14:22;;;;;;;7.90;3.40;;;-2.40;99.90;;;;;;4994449;28;20184;-70
2024/01/08 00:16:48;;;;;;;3.13;1.90;;;;;;;;;;4999340;28;20179;-70
2024/01/08 00:19:14;;;;;;;4.20;2.37;;;;;;;;;;5005367;28;20220;-68
2024/01/08 00:21:39;;;;;;;9.27;2.50;;;-2.50;99.90;;;;;;5005792;28;20294;-68
2024/01/08 00:24:05;;;;;;;3.37;2.20;;;-2.50;99.90;;;;;;4988999;28;20426;-70
2024/01/08 00:26:31;;;;;;;3.73;2.40;;;;;;;;;;4993234;28;20571;-70
2024/01/08 00:28:58;;;;;;;3.90;2.07;;;-2.50;99.90;;;;;;5002250;28;20569;-70
2024/01/08 00:31:24;;;;;;;5.20;2.30;;;-2.50;99.90;;;;;;5003905;28;21134;-70
2024/01/08 00:33:50;;;;;;;4.07;2.27;;;-2.50;99.90;;;;;;4999826;28;20471;-69
2024/01/08 00:36:15;;;;;;;4.03;1.70;;;-2.40;99.90;;;;;;4999241;28;20214;-70
2024/01/08 00:38:41;;;;;;;3.10;1.63;;;-2.40;99.90;;;;;;4999715;28;20210;-70
2024/01/08 00:41:06;;;;;;;4.53;2.50;;;-2.30;99.90;;;;;;4996396;28;20754;-68
2024/01/08 00:43:32;;;;;;;4.07;2.07;;;-2.40;99.90;;;;;;4993082;28;20183;-68
2024/01/08 00:45:57;;;;;;;2.93;1.70;;;-2.50;99.90;;;;;;4993228;28;20561;-70
2024/01/08 00:48:23;;;;;;;2.83;1.70;;;-2.40;99.90;;;;;;5005601;28;20191;-70
2024/01/08 00:50:51;;;;;;;2.50;1.50;;;-2.40;99.90;;;;;;4998803;28;20636;-68
2024/01/08 00:53:17;;;;;;;4.90;2.10;;;;;;;;;;4980628;28;20648;-68
2024/01/08 00:55:43;;;;;;;2.50;1.80;;;-2.40;99.90;;;;;;4992459;28;20426;-68
2024/01/08 00:58:08;;;;;;;2.50;1.33;;;-2.30;99.90;;;;;;4993284;28;20192;-68
2024/01/08 01:00:34;;;;;;;3.23;1.67;;;-2.40;99.90;;;;;;4991731;28;20207;-68
2024/01/08 01:02:59;;;;;;;4.33;2.00;;;-2.40;99.90;;;;;;4993350;28;20184;-68
2024/01/08 01:05:25;;;;;;;2.83;1.40;;;-2.40;99.90;;;;;;5003422;28;20195;-70
2024/01/08 01:07:50;;;;;;;4.00;2.30;;;-2.40;99.90;;;;;;4999084;28;20215;-70
2024/01/08 01:10:16;;;;;;;3.10;1.83;;;-2.40;99.90;;;;;;4998992;28;20198;-68
2024/01/08 01:12:41;;;;;;;2.47;1.63;;;-2.50;99.90;;;;;;4999718;28;20184;-68
2024/01/08 01:15:07;;;;;;;3.63;2.10;;;-2.40;99.90;;;;;;5001189;28;20274;-70
2024/01/08 01:17:32;;;;;;;4.27;2.23;;;-2.50;99.90;;;;;;5010700;28;20719;-70
2024/01/08 01:19:58;;;;;;;3.67;1.93;;;-2.50;99.90;;;;;;4999873;28;20573;-68
2024/01/08 01:22:23;;;;;;;3.97;2.10;;;-2.40;99.90;;;;;;5004919;28;20229;-68
2024/01/08 01:24:49;;;;;;;3.27;2.17;;;-2.40;99.90;;;;;;4986690;28;20278;-70
2024/01/08 01:27:15;;;;;;;2.37;1.77;;;-2.40;99.90;;;;;;4999229;28;20208;-70
2024/01/08 01:29:40;;;;;;;4.20;2.13;;;-2.50;99.90;;;;;;4987418;28;20486;-70
2024/01/08 01:32:06;;;;;;;4.10;2.43;;;-2.40;99.90;;;;;;4992662;28;20194;-70
2024/01/08 01:34:31;;;;;;;4.77;2.13;;;-2.40;99.90;;;;;;5004429;28;20502;-70
2024/01/08 01:36:57;;;;;;;2.73;1.63;;;-2.50;99.90;;;;;;5005635;28;20219;-70
2024/01/08 01:39:22;;;;;;;4.47;2.03;;;-2.50;99.90;;;;;;5002966;28;20192;-70
2024/01/08 01:41:50;;;;;;;1.70;1.10;;;-2.40;99.90;;;;;;4993424;28;20184;-70
2024/01/08 01:44:16;;;;;;;5.30;2.87;;;-2.40;99.90;;;;;;4999663;28;20192;-70
2024/01/08 01:46:51;;;;;;;3.50;1.60;;;-2.50;99.90;;;;;;5011166;28;20553;-70
2024/01/08 01:49:17;;;;;;;4.43;2.07;;;-2.50;99.90;;;;;;4998360;28;20191;-70
2024/01/08 01:51:46;;;;;;;2.40;1.80;;;-2.50;99.90;;;;;;5004949;28;20445;-69
2024/01/08 01:54:17;;;;;;;4.27;2.13;;;-2.50;99.90;;;;;;4997299;28;20526;-70
2024/01/08 01:56:46;;;;;;;5.33;2.23;;;-2.50;99.90;;;;;;4991864;28;20427;-69
2024/01/08 01:59:12;;;;;;;8.73;1.80;;;-2.60;99.90;;;;;;5000440;28;20453;-70
2024/01/08 02:01:37;;;;;;;4.43;1.47;;;-2.50;99.90;;;;;;5001125;28;20445;-70
2024/01/08 02:04:03;;;;;;;3.00;2.03;;;-2.60;99.90;;;;;;4996134;28;20680;-68
2024/01/08 02:06:29;;;;;;;4.13;1.93;;;-2.60;99.90;;;;;;5010783;28;20231;-68
2024/01/08 02:08:56;;;;;;;4.00;2.00;;;-2.50;99.90;;;;;;4995726;28;20262;-68
2024/01/08 02:11:22;;;;;;;3.80;2.00;;;-2.50;99.90;;;;;;5009939;28;20183;-68
2024/01/08 02:13:50;;;;;;;5.93;2.33;;;-2.50;99.90;;;;;;4996232;28;20453;-68
2024/01/08 02:16:18;;;;;;;3.73;2.07;;;-2.50;99.90;;;;;;5000494;28;20976;-68
2024/01/08 02:18:43;;;;;;;3.93;2.37;;;-2.40;99.90;;;;;;4992707;28;20461;-68
2024/01/08 02:21:09;;;;;;;4.07;2.13;;;-2.40;99.90;;;;;;5001607;28;20433;-70
2024/01/08 02:23:35;;;;;;;4.13;1.97;;;-2.50;99.90;;;;;;4994798;28;20218;-69
2024/01/08 02:26:00;;;;;;;3.60;1.93;;;-2.50;99.90;;;;;;4998886;28;20313;-68
2024/01/08 02:28:26;;;;;;;10.27;3.10;;;-2.40;99.90;;;;;;5008566;28;20271;-68
2024/01/08 02:30:51;;;;;;;4.33;2.20;;;-2.40;99.90;;;;;;4997947;28;20188;-68
2024/01/08 02:33:17;;;;;;;2.50;1.80;;;-2.50;99.90;;;;;;4997136;28;20194;-68
2024/01/08 02:35:42;;;;;;;4.80;1.90;;;-2.40;99.90;;;;;;5011388;28;20194;-69
2024/01/08 02:38:08;;;;;;;5.20;2.77;;;-2.50;99.90;;;;;;4991044;28;20199;-70
2024/01/08 02:40:34;;;;;;;3.23;2.10;;;-2.50;99.90;;;;;;4990699;28;20194;-70
2024/01/08 02:42:59;;;;;;;4.40;2.13;;;-2.50;99.90;;;;;;4988035;28;20207;-69
2024/01/08 02:45:25;;;;;;;2.80;1.80;;;-2.50;99.90;;;;;;4991038;28;20648;-69
2024/01/08 02:47:50;;;;;;;5.73;2.00;;;-2.50;99.90;;;;;;4991819;28;20211;-70
2024/01/08 02:50:16;;;;;;;3.90;2.20;;;-2.50;99.90;;;;;;5009082;28;20191;-69
2024/01/08 02:52:44;;;;;;;6.67;2.00;;;-2.50;99.90;;;;;;4990618;28;20192;-70
2024/01/08 02:55:10;;;;;;;3.93;1.90;;;-2.50;99.90;;;;;;4992360;28;20507;-68
2024/01/08 02:57:35;;;;;;;4.00;1.83;;;-2.50;99.90;;;;;;4991074;28;20422;-68
2024/01/08 03:00:04;;;;;;;4.10;2.57;;;-2.50;99.90;;;;;;4984598;28;20907;-70
2024/01/08 03:02:29;;;;;;;3.03;1.90;;;-2.50;99.90;;;;;;5004685;28;20692;-70
2024/01/08 03:04:55;;;;;;;3.70;2.37;;;-2.50;99.90;;;;;;4991585;28;20423;-70
2024/01/08 03:07:20;;;;;;;3.00;1.60;;;-2.50;99.90;;;;;;4992894;28;20266;-70
2024/01/08 03:09:47;;;;;;;4.10;2.00;;;-2.40;99.90;;;;;;5002123;28;20184;-68
2024/01/08 03:12:14;;;;;;;2.73;2.20;;;-2.40;99.90;;;;;;4997546;28;20189;-68
2024/01/08 03:14:39;;;;;;;3.67;2.40;;;-2.50;99.90;;;;;;4990064;28;20462;-68
2024/01/08 03:17:05;;;;;;;3.20;1.80;;;-2.40;99.90;;;;;;4994003;28;20572;-68
2024/01/08 03:19:31;;;;;;;5.10;2.43;;;-2.40;99.90;;;;;;4994815;28;20800;-68
2024/01/08 03:21:56;;;;;;;5.53;1.93;;;-2.40;99.90;;;;;;4996832;28;20254;-68
2024/01/08 03:24:22;;;;;;;3.10;1.83;;;-2.50;99.90;;;;;;5006948;28;20219;-68
2024/01/08 03:26:47;;;;;;;3.80;2.40;;;-2.50;99.90;;;;;;5014080;28;20210;-68
2024/01/08 03:29:13;;;;;;;2.90;2.17;;;-2.40;99.90;;;;;;5005936;28;20625;-70
2024/01/08 03:31:43;;;;;;;3.80;2.10;;;-2.40;99.90;;;;;;4994667;28;20184;-70
2024/01/08 03:34:08;;;;;;;4.77;2.43;;;-2.40;99.90;;;;;;5011342;28;20414;-70
2024/01/08 03:36:34;;;;;;;5.47;2.30;;;-2.40;99.90;;;;;;4998205;28;20429;-70
2024/01/08 03:39:00;;;;;;;5.80;2.10;;;-2.50;99.90;;;;;;5000775;28;20187;-69
2024/01/08 03:41:25;;;;;;;5.07;2.40;;;-2.40;99.90;;;;;;4999530;28;20675;-69
2024/01/08 03:43:51;;;;;;;5.63;2.37;;;-2.40;99.90;;;;;;5007366;28;20535;-69
2024/01/08 03:46:16;;;;;;;4.30;2.67;;;-2.40;99.90;;;;;;4994226;28;20215;-70
2024/01/08 03:48:42;;;;;;;5.20;2.40;;;-2.40;99.90;;;;;;4999509;28;20191;-69
2024/01/08 03:51:07;;;;;;;5.23;2.30;;;-2.40;99.90;;;;;;4998668;28;20693;-69
2024/01/08 03:53:33;;;;;;;3.90;2.40;;;-2.40;99.90;;;;;;4996920;28;20183;-69
2024/01/08 03:55:58;;;;;;;6.63;2.77;;;-2.40;99.90;;;;;;5000008;28;20183;-70
2024/01/08 03:58:25;;;;;;;5.63;2.77;;;-2.40;99.90;;;;;;5014022;28;20190;-70
2024/01/08 04:00:52;;;;;;;4.60;2.17;;;-2.50;99.90;;;;;;5002426;28;20211;-69
2024/01/08 04:03:17;;;;;;;2.87;1.83;;;-2.50;99.90;;;;;;5004882;28;20431;-69
2024/01/08 04:05:43;;;;;;;3.50;2.13;;;-2.50;99.90;;;;;;5006925;28;20419;-68
2024/01/08 04:08:08;;;;;;;3.27;1.70;;;-2.50;99.90;;;;;;5013780;28;20202;-68
2024/01/08 04:10:34;;;;;;;2.90;2.17;;;-2.50;99.90;;;;;;4998031;28;20676;-69
2024/01/08 04:12:59;;;;;;;10.30;2.23;;;-2.50;99.90;;;;;;5001147;28;20215;-69
2024/01/08 04:15:24;;;;;;;3.60;2.57;;;-2.50;99.90;;;;;;4993743;28;20183;-68
2024/01/08 04:17:50;;;;;;;3.90;2.00;;;-2.50;99.90;;;;;;5006477;28;20250;-68
2024/01/08 04:20:16;;;;;;;2.60;1.70;;;-2.50;99.90;;;;;;4998387;28;20180;-70
2024/01/08 04:22:44;;;;;;;3.10;1.77;;;-2.50;99.90;;;;;;4993738;28;20243;-70
2024/01/08 04:25:10;;;;;;;3.27;1.80;;;-2.50;99.90;;;;;;5010422;28;20425;-68
2024/01/08 04:27:35;;;;;;;2.90;1.50;;;-2.40;99.90;;;;;;5004583;28;20462;-68
2024/01/08 04:30:01;;;;;;;3.13;2.03;;;-2.40;99.90;;;;;;4993636;28;20190;-68
2024/01/08 04:32:26;;;;;;;3.97;2.37;;;-2.40;99.90;;;;;;5003324;28;20187;-68
2024/01/08 04:34:52;;;;;;;3.43;2.00;;;-2.40;99.90;;;;;;5006205;28;20192;-68
2024/01/08 04:37:18;;;;;;;3.20;1.60;;;-2.40;99.90;;;;;;4993549;28;20211;-68
2024/01/08 04:39:43;;;;;;;3.93;2.13;;;-2.30;99.90;;;;;;5005038;28;20191;-68
2024/01/08 04:42:08;;;;;;;3.30;1.80;;;-2.40;99.90;;;;;;4988563;28;20647;-68
2024/01/08 04:44:34;;;;;;;2.33;1.67;;;-2.40;99.90;;;;;;4994301;28;20207;-70
2024/01/08 04:46:59;;;;;;;2.50;1.40;;;-2.50;99.90;;;;;;5012993;28;20207;-70
2024/01/08 04:49:25;;;;;;;2.30;1.37;;;-2.50;99.90;;;;;;5007903;28;20219;-69
2024/01/08 04:51:50;;;;;;;3.93;1.87;;;-2.50;99.90;;;;;;4999090;28;20267;-70
2024/01/08 04:54:16;;;;;;;4.40;1.93;;;-2.40;99.90;;;;;;4997712;28;20180;-69
2024/01/08 04:56:42;;;;;;;3.37;2.00;;;-2.40;99.90;;;;;;4992848;28;20186;-69
2024/01/08 04:59:08;;;;;;;4.73;2.50;;;-2.50;99.90;;;;;;4993255;28;20184;-69
2024/01/08 05:01:37;;;;;;;1.87;1.30;;;-2.50;99.90;;;;;;4993361;28;20426;-69
2024/01/08 05:04:03;;;;;;;5.20;2.30;;;-2.50;99.90;;;;;;5002986;28;20187;-70
2024/01/08 05:06:29;;;;;;;3.80;2.33;;;-2.60;99.90;;;;;;5003202;28;20455;-69
2024/01/08 05:08:54;;;;;;;3.90;2.07;;;-2.50;99.90;;;;;;4999639;28;20918;-68
2024/01/08 05:11:20;;;;;;;4.00;1.60;;;-2.40;99.90;;;;;;4994699;28;20203;-68
2024/01/08 05:13:45;;;;;;;2.90;2.10;;;-2.50;99.90;;;;;;4997024;28;20192;-68
2024/01/08 05:16:11;;;;;;;3.67;1.90;;;-2.60;99.90;;;;;;5000898;28;20192;-68
2024/01/08 05:18:36;;;;;;;3.43;1.77;;;-2.60;99.90;;;;;;4993540;28;20320;-68
2024/01/08 05:21:05;;;;;;;3.77;2.30;;;-2.60;99.90;;;;;;4996641;28;20187;-68
2024/01/08 05:23:31;;;;;;;2.90;1.93;;;-2.60;99.90;;;;;;5001467;28;20190;-68
2024/01/08 05:25:59;;;;;;;4.17;2.00;;;-2.60;99.90;;;;;;4999385;28;20425;-70
2024/01/08 05:28:26;;;;;;;5.20;2.77;;;-2.60;99.90;;;;;;4995950;28;20199;-69
2024/01/08 05:30:52;;;;;;;3.17;1.53;;;-2.60;99.90;;;;;;4998768;28;20421;-68
2024/01/08 05:33:18;;;;;;;6.80;2.40;;;-2.60;99.90;;;;;;4992681;28;20763;-68
2024/01/08 05:35:44;;;;;;;10.60;2.00;;;-2.60;99.90;;;;;;4995779;28;20441;-69
2024/01/08 05:38:10;;;;;;;2.77;1.60;;;-2.60;99.90;;;;;;5008824;28;20566;-69
2024/01/08 05:40:36;;;;;;;4.00;2.40;;;-2.60;99.90;;;;;;4995453;28;20520;-68
2024/01/08 05:43:02;;;;;;;5.43;2.47;;;-2.60;99.90;;;;;;4992445;28;20429;-68
2024/01/08 05:45:28;;;;;;;3.17;2.30;;;-2.60;99.90;;;;;;4991800;28;20195;-68
2024/01/08 05:47:54;;;;;;;4.03;1.97;;;-2.60;99.90;;;;;;5006893;28;20466;-68
2024/01/08 05:50:21;;;;;;;2.03;1.53;;;-2.60;99.90;;;;;;4999825;28;20171;-70
2024/01/08 05:52:46;;;;;;;3.90;2.37;;;-2.60;99.90;;;;;;4992356;28;20983;-69
2024/01/08 05:55:15;;;;;;;3.40;2.03;;;-2.60;99.90;;;;;;4999617;28;20430;-69
2024/01/08 05:57:40;;;;;;;3.07;1.80;;;-2.60;99.90;;;;;;4992045;28;20653;-70
2024/01/08 06:00:07;;;;;;;5.40;2.50;;;-2.60;99.90;;;;;;4990967;28;20475;-70
2024/01/08 06:02:32;;;;;;;4.17;1.80;;;-2.60;99.90;;;;;;5003840;28;20246;-69
2024/01/08 06:04:58;;;;;;;5.00;2.73;;;-2.60;99.90;;;;;;4992830;28;20422;-69
2024/01/08 06:07:23;;;;;;;3.87;2.33;;;-2.60;99.90;;;;;;5008084;28;20211;-70
2024/01/08 06:09:49;;;;;;;2.80;1.87;;;-2.60;99.90;;;;;;4986990;28;20186;-70
2024/01/08 06:12:14;;;;;;;4.97;2.67;;;-2.50;99.90;;;;;;5001073;28;20190;-70
2024/01/08 06:14:41;;;;;;;5.17;2.33;;;-2.50;99.90;;;;;;5002221;28;20261;-69
2024/01/08 06:17:08;;;;;;;3.63;2.30;;;-2.50;99.90;;;;;;4998046;28;20242;-69
2024/01/08 06:19:33;;;;;;;4.50;2.30;;;-2.50;99.90;;;;;;4992844;28;20423;-69
2024/01/08 06:21:59;;;;;;;6.80;1.80;;;-2.50;99.90;;;;;;5003119;28;20811;-69
2024/01/08 06:24:24;;;;;;;4.47;2.20;;;-2.50;99.90;;;;;;5002473;28;20188;-70
2024/01/08 06:26:50;;;;;;;3.00;2.17;;;-2.50;99.90;;;;;;5004568;28;20215;-70
2024/01/08 06:29:16;;;;;;;3.97;2.27;;;-2.60;99.90;;;;;;4993411;28;20230;-70
2024/01/08 06:31:42;;;;;;;7.20;3.07;;;-2.60;99.90;;;;;;4995305;28;20180;-70
2024/01/08 06:34:08;;;;;;;3.13;2.00;;;-2.60;99.90;;;;;;4993896;28;20432;-70
2024/01/08 06:36:34;;;;;;;5.97;2.80;;;-2.60;99.90;;;;;;4991264;28;20427;-70
2024/01/08 06:39:00;;;;;;;3.93;2.60;;;-2.60;99.90;;;;;;4997964;28;20633;-70
2024/01/08 06:41:26;;;;;;;5.07;2.20;;;-2.60;99.90;;;;;;4997065;28;20441;-70
2024/01/08 06:43:51;;;;;;;4.53;2.43;;;-2.60;99.90;;;;;;5000560;28;20438;-68
2024/01/08 06:46:18;;;;;;;9.83;2.77;;;-2.60;99.90;;;;;;4992616;28;20211;-68
2024/01/08 06:48:44;;;;;;;8.90;2.37;;;-2.70;99.90;;;;;;5002166;28;20570;-68
2024/01/08 06:51:11;;;;;;;5.63;2.53;;;-2.70;99.90;;;;;;4991122;28;20433;-68
2024/01/08 06:53:36;;;;;;;4.33;2.60;;;-2.70;99.90;;;;;;4991813;28;20218;-68
2024/01/08 06:56:02;;;;;;;3.20;1.80;;;-2.70;99.90;;;;;;4978103;28;20430;-70
2024/01/08 06:58:28;;;;;;;5.30;1.93;;;-2.60;99.90;;;;;;5014886;28;20191;-70
2024/01/08 07:00:53;;;;;;;4.73;2.10;;;-2.70;99.90;;;;;;4993604;28;20215;-70
2024/01/08 07:03:19;;;;;;;6.33;2.57;;;-2.70;99.90;;;;;;5005520;28;20194;-70
2024/01/08 07:05:44;;;;;;;6.67;2.00;;;-2.70;99.90;;;;;;5005041;28;20234;-70
2024/01/08 07:08:10;;;;;;;9.97;2.60;;;-2.80;99.90;;;;;;4999051;28;20241;-70
2024/01/08 07:10:35;;;;;;;2.90;1.53;;;-2.80;99.90;;;;;;4992276;28;20219;-69
2024/01/08 07:13:01;;;;;;;4.87;2.40;;;-2.90;99.90;;;;;;4994851;28;20191;-69
2024/01/08 07:15:40;;;;;;;4.30;2.60;;;-2.80;99.90;;;;;;4976826;28;20234;-70
2024/01/08 07:18:10;;;;;;;5.83;2.43;;;-2.80;99.90;;;;;;4992713;28;20257;-70
2024/01/08 07:20:39;;;;;;;3.50;1.83;;;-2.80;99.90;;;;;;4991371;28;20438;-68
2024/01/08 07:23:08;;;;;;;5.23;2.20;;;-2.80;99.90;;;;;;4992343;28;20997;-69
2024/01/08 07:25:37;;;;;;;4.30;2.10;;;-2.90;99.90;;;;;;4994488;28;20468;-69
2024/01/08 07:28:06;;;;;;;8.40;2.70;;;-2.90;99.90;;;;;;4998652;28;20532;-69
2024/01/08 07:30:32;;;;;;;8.20;3.27;;;-2.80;99.90;;;;;;4993369;28;20466;-69
2024/01/08 07:32:58;;;;;;;4.30;2.40;;;-2.70;99.90;;;;;;4996742;28;20882;-69
2024/01/08 07:35:23;;;;;;;5.47;2.67;;;-2.70;99.90;;;;;;4988377;28;20426;-68
2024/01/08 07:37:55;;;;;;;4.33;2.50;;;-2.80;99.90;;;;;;4993457;28;20727;-68
2024/01/08 07:40:24;;;;;;;3.33;2.10;;;-2.70;99.90;;;;;;4996571;28;20182;-70
2024/01/08 07:42:51;;;;;;;4.57;2.57;;;-2.80;99.90;;;;;;4992230;28;20470;-70
2024/01/08 07:45:16;;;;;;;4.03;2.30;;;-2.80;99.90;;;;;;4997745;28;20505;-73
2024/01/08 07:47:42;;;;;;;6.23;2.60;;;-2.80;99.90;;;;;;4997621;28;20548;-73
2024/01/08 07:50:08;;;;;;;5.83;2.23;;;-2.80;99.90;;;;;;4988226;28;20234;-73
2024/01/08 07:52:36;;;;;;;5.53;2.47;;;-2.80;99.90;;;;;;4992947;28;20194;-73
2024/01/08 07:55:03;;;;;;;7.20;2.60;;;-2.80;99.90;;;;;;5005736;28;20858;-73
2024/01/08 07:57:28;;;;;;;3.80;2.17;;;-2.80;99.90;;;;;;5000638;28;20427;-73
2024/01/08 07:59:54;;;;;;;4.20;2.33;;;-2.70;99.90;;;;;;4984420;28;21199;-72
2024/01/08 08:02:20;;;;;;;5.83;2.93;;;-2.70;99.90;;;;;;5009413;28;20225;-71
2024/01/08 08:04:45;;;;;;;4.43;2.37;;;-2.70;99.90;;;;;;5004714;28;20844;-72
2024/01/08 08:07:11;;;;;;;5.07;2.73;;;-2.70;99.90;;;;;;4998359;28;20207;-72
2024/01/08 08:09:36;;;;;;;4.27;2.50;;;-2.70;99.90;;;;;;4993069;28;20180;-72
2024/01/08 08:12:02;;;;;;;4.87;1.80;;;-2.70;99.90;;;;;;4991855;28;20176;-72
2024/01/08 08:14:27;;;;;;;6.73;2.87;;;-2.80;99.90;;;;;;5011581;28;20190;-73
2024/01/08 08:16:53;;;;;;;5.23;3.23;;;-2.80;99.90;;;;;;5011463;28;20225;-72
2024/01/08 08:19:19;;;;;;;6.93;2.57;;;-2.80;99.90;;;;;;5006148;28;20195;-71
2024/01/08 08:21:46;;;;;;;7.30;2.47;;;-2.70;99.90;;;;;;4989178;28;20992;-72
2024/01/08 08:24:12;;;;;;;6.30;2.67;;;-2.80;99.90;;;;;;4992871;28;20435;-72
2024/01/08 08:26:37;;;;;;;5.57;2.80;;;-2.90;99.90;;;;;;4977170;28;20827;-72
2024/01/08 08:29:03;;;;;;;7.10;2.80;;;-2.60;99.90;;;;;;4994278;28;20628;-72
2024/01/08 08:31:29;;;;;;;3.83;2.00;;;-2.70;99.90;;;;;;4992681;28;21165;-73
2024/01/08 08:33:55;;;;;;;5.37;2.47;;;-2.80;99.90;;;;;;5001487;28;20422;-73
2024/01/08 08:36:20;;;;;;;3.83;1.90;;;-2.80;99.90;;;;;;4998532;28;20576;-72
2024/01/08 08:38:46;;;;;;;4.00;2.73;;;-2.80;99.90;;;;;;4989225;28;20524;-72
2024/01/08 08:41:11;;;;;;;5.73;2.77;;;-2.80;99.90;;;;;;4989646;28;20682;-72
2024/01/08 08:43:37;;;;;;;4.30;2.47;;;-2.80;99.90;;;;;;4996566;28;20180;-72
2024/01/08 08:46:03;;;;;;;5.07;2.80;;;-2.70;99.90;;;;;;4995549;28;20203;-72
2024/01/08 08:48:28;;;;;;;3.83;2.60;;;-2.80;99.90;;;;;;4998092;28;20266;-72
2024/01/08 08:50:54;;;;;;;6.80;2.43;;;-2.70;99.90;;;;;;4995186;28;20538;-72
2024/01/08 08:53:19;;;;;;;5.07;2.70;;;-2.70;99.90;;;;;;4994839;28;20198;-72
2024/01/08 08:55:45;;;;;;;4.20;2.40;;;-2.70;99.90;;;;;;5009123;28;20183;-72
2024/01/08 08:58:10;;;;;;;4.37;1.90;;;-2.70;99.90;;;;;;5010669;28;20195;-72
2024/01/08 09:00:36;;;;;;;4.73;2.87;;;-2.70;99.90;;;;;;5008068;28;20217;-72
2024/01/08 09:03:03;;;;;;;5.37;2.50;;;-2.70;99.90;;;;;;5008055;28;20183;-72
2024/01/08 09:05:29;;;;;;;5.63;2.47;;;-2.60;99.90;;;;;;5009236;28;20422;-72
2024/01/08 09:07:54;;;;;;;5.70;2.60;;;-2.60;99.90;;;;;;5000234;28;20473;-71
2024/01/08 09:10:20;;;;;;;5.40;2.40;;;-2.60;99.90;;;;;;4998494;28;20427;-72
2024/01/08 09:12:45;;;;;;;4.17;2.43;;;-2.60;99.90;;;;;;4999082;28;20186;-72
2024/01/08 09:15:11;;;;;;;3.07;2.03;;;-2.60;99.90;;;;;;5005693;28;20645;-71
2024/01/08 09:17:37;;;;;;;4.83;2.63;;;-2.60;99.90;;;;;;4991221;28;20342;-72
2024/01/08 09:20:05;;;;;;;3.40;2.10;;;-2.50;99.90;;;;;;4987584;28;20243;-72
2024/01/08 09:22:31;;;;;;;3.73;2.13;;;-2.50;99.90;;;;;;4996014;28;20929;-73
2024/01/08 09:24:56;;;;;;;4.53;2.53;;;-2.50;99.90;;;;;;5008812;28;20480;-73
2024/01/08 09:27:22;;;;;;;5.50;2.30;;;-2.50;99.90;;;;;;4993832;28;20200;-72
2024/01/08 09:29:48;;;;;;;3.60;1.90;;;-2.50;99.90;;;;;;4992758;28;20208;-65
2024/01/08 09:32:14;;;;;;;3.80;2.10;;;-2.50;99.90;;;;;;5007066;28;21042;-65
2024/01/08 09:34:40;;;;;;;6.93;2.80;;;-2.50;99.90;;;;;;4996697;28;20279;-66
2024/01/08 09:37:05;;;;;;;4.30;2.50;;;-2.40;99.90;;;;;;4989126;28;20706;-65
2024/01/08 09:39:32;;;;;;;4.53;2.80;;;-2.30;99.90;;;;;;4988139;28;20222;-72
2024/01/08 09:42:00;;;;;;;3.53;2.27;;;-2.30;99.50;;;;;;4995005;28;20188;-72
2024/01/08 09:44:28;;;;;;;3.53;2.00;;;-2.40;99.50;;;;;;5003414;28;20799;-72
2024/01/08 09:46:54;;;;;;;7.30;2.30;;;-2.40;99.70;;;;;;4997508;28;20813;-72
2024/01/08 09:49:21;;;;;;;4.57;2.80;;;-2.50;99.80;;;;;;4999532;28;21054;-72
2024/01/08 09:51:47;;;;;;;4.70;3.00;;;-2.50;99.90;;;;;;4999475;28;20947;-72
2024/01/08 09:54:12;;;;;;;4.40;1.90;;;-2.40;99.90;;;;;;4996300;28;20497;-66
2024/01/08 09:56:38;;;;;;;5.77;2.40;;;-2.30;99.90;;;;;;4998530;28;20230;-66
2024/01/08 09:59:04;;;;;;;3.67;2.00;;;-2.30;99.90;;;;;;4998297;28;20187;-72
2024/01/08 10:01:29;;;;;;;5.30;2.43;;;-2.40;99.90;;;;;;4986506;28;20203;-72
2024/01/08 10:03:55;;;;;;;8.20;2.60;;;-2.30;99.90;;;;;;5004145;28;20194;-72
2024/01/08 10:06:21;;;;;;;9.83;2.87;;;-2.40;99.70;;;;;;5010989;28;20186;-72
2024/01/08 10:08:46;;;;;;;8.17;2.10;;;-2.30;99.90;;;;;;4997128;28;20494;-72
2024/01/08 10:11:13;;;;;;;5.43;2.50;;;-2.30;99.90;;;;;;4992598;28;20191;-72
2024/01/08 10:13:40;;;;;;;3.30;1.97;;;-2.30;99.90;;;;;;4997209;28;20219;-72
2024/01/08 10:16:08;;;;;;;4.20;2.30;;;-2.40;99.80;;;;;;5004931;28;20414;-72
2024/01/08 10:18:33;;;;;;;4.97;2.30;;;-2.50;99.80;;;;;;5003521;28;20470;-72
2024/01/08 10:21:10;;;;;;;3.47;2.20;;;-2.50;99.90;;;;;;4989697;28;20426;-65
2024/01/08 10:23:36;;;;;;;4.20;2.03;;;-2.50;99.90;;;;;;5001822;28;20234;-66
2024/01/08 10:26:03;;;;;;;9.40;3.00;;;-2.50;99.90;;;;;;5002289;28;20577;-72
2024/01/08 10:28:37;;;;;;;5.13;2.60;;;-2.50;99.90;;;;;;5001297;28;20575;-72
2024/01/08 10:31:07;;;;;;;6.17;2.80;;;-2.50;99.90;;;;;;5008260;28;20886;-72
2024/01/08 10:33:33;;;;;;;5.70;2.70;;;-2.40;99.80;;;;;;4999419;28;20434;-72
2024/01/08 10:36:05;;;;;;;4.80;1.97;;;-2.30;99.90;;;;;;5002348;28;20438;-72
2024/01/08 10:38:32;;;;;;;6.87;2.30;;;-2.30;99.60;;;;;;5004975;28;20672;-72
2024/01/08 10:41:00;;;;;;;5.87;2.40;;;-2.30;99.70;;;;;;4992877;28;20445;-72
2024/01/08 10:43:27;;;;;;;4.20;2.00;;;-2.30;99.80;;;;;;4995318;28;20466;-73
2024/01/08 10:45:56;;;;;;;4.47;2.83;;;-2.20;99.90;;;;;;4997968;28;20985;-73
2024/01/08 10:48:24;;;;;;;7.63;2.77;;;-2.20;99.50;;;;;;4992805;28;20467;-72
2024/01/08 10:50:53;;;;;;;8.87;2.60;;;-2.30;99.60;;;;;;5004013;28;20522;-73
2024/01/08 10:53:42;;;;;;;7.13;2.60;;;-2.30;99.80;;;;;;5007962;28;20940;-72
2024/01/08 10:56:14;;;;;;;5.23;1.73;;;-2.30;99.60;;;;;;4984948;28;20870;-72
2024/01/08 10:59:01;;;;;;;4.23;2.20;;;-2.30;99.10;;;;;;5000276;28;20418;-72
2024/01/08 11:01:29;;;;;;;5.20;2.10;;;-2.20;99.20;;;;;;4997237;28;20438;-72
2024/01/08 11:03:56;;;;;;;4.13;2.30;;;-2.20;99.20;;;;;;4998129;28;20422;-72
2024/01/08 11:06:22;;;;;;;3.73;2.17;;;-2.20;99.10;;;;;;4996893;28;20422;-72
2024/01/08 11:08:49;;;;;;;9.20;2.37;;;-2.30;99.30;;;;;;5006218;28;20461;-72
2024/01/08 11:11:15;;;;;;;3.37;1.67;;;-2.30;99.30;;;;;;5001820;28;20426;-73
2024/01/08 11:13:42;;;;;;;5.43;2.77;;;-2.30;99.20;;;;;;5003808;28;20433;-72
2024/01/08 11:16:09;;;;;;;3.93;2.30;;;-2.20;99.30;;;;;;5008043;28;20468;-72
2024/01/08 11:18:37;;;;;;;6.60;1.87;;;-2.30;99.00;;;;;;5008582;28;20839;-72
2024/01/08 11:21:03;;;;;;;5.13;2.20;;;-2.20;99.20;;;;;;4994450;28;20465;-72
2024/01/08 11:23:41;;;;;;;5.47;2.80;;;-2.30;98.90;;;;;;4989022;28;20478;-72
2024/01/08 11:26:39;;;;;;;4.20;2.30;;;-2.30;99.30;;;;;;5000256;28;20634;-74
2024/01/08 11:29:08;;;;;;;4.20;2.10;;;-2.10;99.60;;;;;;4989532;28;20639;-68
2024/01/08 11:32:06;;;;;;;5.13;2.20;;;-2.10;98.90;;;;;;4995096;28;20414;-66
2024/01/08 11:34:45;;;;;;;3.83;1.93;;;-2.00;99.20;;;;;;5000110;28;20426;-71
2024/01/08 11:37:39;;;;;;;3.63;1.80;;;-2.10;99.20;;;;;;4985306;28;20454;-73
2024/01/08 11:40:19;;;;;;;5.00;2.30;;;-2.10;99.00;;;;;;5011330;28;20401;-73
2024/01/08 11:42:45;;;;;;;5.10;2.40;;;-2.10;99.20;;;;;;4990478;28;20401;-73
2024/01/08 11:45:12;;;;;;;5.57;2.50;;;-2.00;99.60;;;;;;5004694;28;20903;-73
2024/01/08 11:47:38;;;;;;;5.17;2.40;;;-2.00;99.40;;;;;;5009127;28;20462;-73
2024/01/08 11:50:05;;;;;;;5.00;2.00;;;-2.00;99.00;;;;;;5015176;28;20410;-73
2024/01/08 11:52:32;;;;;;;2.80;1.90;;;-2.00;99.10;;;;;;4999772;28;20771;-73
2024/01/08 11:54:59;;;;;;;4.73;2.23;;;-2.00;99.00;;;;;;5000032;28;20469;-73
2024/01/08 11:57:25;;;;;;;4.97;2.30;;;-1.90;99.30;;;;;;5013459;28;20480;-73
2024/01/08 11:59:50;;;;;;;5.03;2.47;;;-2.00;99.10;;;;;;5003436;28;20469;-73
2024/01/08 12:02:23;;;;;;;5.77;2.70;;;-2.00;99.30;;;;;;5016491;28;20552;-73
2024/01/08 12:05:02;;;;;;;3.53;1.90;;;-1.80;99.20;;;;;;4994795;28;20187;-73
2024/01/08 12:07:28;;;;;;;5.00;2.30;;;-2.00;98.80;;;;;;4999867;28;20469;-73
2024/01/08 12:09:55;;;;;;;5.67;2.60;;;-1.90;98.80;;;;;;4995943;28;20502;-73
2024/01/08 12:12:24;;;;;;;4.40;2.53;;;-1.90;99.00;;;;;;5012053;28;20416;-73
2024/01/08 12:14:51;;;;;;;3.83;2.10;;;-1.90;99.00;;;;;;4988404;28;20785;-73
2024/01/08 12:17:20;;;;;;;4.83;2.17;;;-1.80;99.00;;;;;;4998038;28;20466;-73
2024/01/08 12:19:54;;;;;;;5.30;2.10;;;-1.80;98.60;;;;;;4997484;28;20431;-72
2024/01/08 12:22:23;;;;;;;7.50;2.30;;;-1.90;98.50;;;;;;4998026;28;20818;-72
2024/01/08 12:24:51;;;;;;;4.77;2.33;;;-2.00;98.80;;;;;;5007649;28;20529;-72
2024/01/08 12:27:19;;;;;;;4.70;2.23;;;-1.90;98.70;;;;;;5007039;28;20467;-73
2024/01/08 12:29:46;;;;;;;5.67;2.43;;;-1.90;98.70;;;;;;4999340;28;20419;-66
2024/01/08 12:32:16;;;;;;;4.57;2.90;;;-1.80;98.40;;;;;;4993362;28;20446;-66
2024/01/08 12:34:42;;;;;;;3.70;2.27;;;-1.70;98.70;;;;;;4999856;28;20457;-71
2024/01/08 12:37:08;;;;;;;5.90;2.50;;;-1.80;98.50;;;;;;4993567;28;20550;-72
2024/01/08 12:39:34;;;;;;;4.20;2.70;;;-1.80;98.60;;;;;;5015855;28;20436;-72
2024/01/08 12:42:02;;;;;;;3.77;1.50;;;-1.90;98.50;;;;;;5015717;28;20501;-72
2024/01/08 12:44:32;;;;;;;6.20;2.20;;;-1.90;99.00;;;;;;5001119;28;20438;-72
2024/01/08 12:46:58;;;;;;;2.83;1.70;;;-1.70;99.10;;;;;;4981386;28;20466;-72